sensor_id;sensor_type;location;lat;lon;timestamp;pressure;altitude;pressure_sealevel;temperature
45034;BMP280;30771;47.988;-4.186;2022-07-29T06:00:28;100599.72;;;17.54
45034;BMP280;30771;47.988;-4.186;2022-07-29T06:02:54;100601.38;;;17.55
45034;BMP280;30771;47.988;-4.186;2022-07-29T06:05:19;100601.38;;;17.55
45034;BMP280;30771;47.988;-4.186;2022-07-29T06:07:44;100602.75;;;17.63
45034;BMP280;30771;47.988;-4.186;2022-07-29T06:10:09;100607.13;;;17.69
45034;BMP280;30771;47.988;-4.186;2022-07-29T06:12:35;100606.16;;;17.75
45034;BMP280;30771;47.988;-4.186;2022-07-29T06:15:00;100611.78;;;17.78
45034;BMP280;30771;47.988;-4.186;2022-07-29T06:17:25;100615.31;;;17.84
45034;BMP280;30771;47.988;-4.186;2022-07-29T06:19:50;100612.50;;;17.90
45034;BMP280;30771;47.988;-4.186;2022-07-29T06:22:16;100617.97;;;18.05
45034;BMP280;30771;47.988;-4.186;2022-07-29T06:24:41;100609.69;;;18.23
45034;BMP280;30771;47.988;-4.186;2022-07-29T06:27:07;100618.47;;;18.46
45034;BMP280;30771;47.988;-4.186;2022-07-29T06:29:32;100624.78;;;18.66
45034;BMP280;30771;47.988;-4.186;2022-07-29T06:31:57;100623.13;;;18.87
45034;BMP280;30771;47.988;-4.186;2022-07-29T06:34:22;100626.44;;;19.04
45034;BMP280;30771;47.988;-4.186;2022-07-29T06:36:48;100621.22;;;19.14
45034;BMP280;30771;47.988;-4.186;2022-07-29T06:39:13;100632.22;;;19.27
45034;BMP280;30771;47.988;-4.186;2022-07-29T06:41:38;100630.47;;;19.43
45034;BMP280;30771;47.988;-4.186;2022-07-29T06:44:03;100632.09;;;19.54
45034;BMP280;30771;47.988;-4.186;2022-07-29T06:46:29;100624.69;;;19.61
45034;BMP280;30771;47.988;-4.186;2022-07-29T06:48:54;100639.41;;;19.68
45034;BMP280;30771;47.988;-4.186;2022-07-29T06:51:20;100640.00;;;19.70
45034;BMP280;30771;47.988;-4.186;2022-07-29T06:53:45;100632.75;;;19.76
45034;BMP280;30771;47.988;-4.186;2022-07-29T06:56:10;100644.84;;;19.83
45034;BMP280;30771;47.988;-4.186;2022-07-29T06:58:36;100627.50;;;19.91
45034;BMP280;30771;47.988;-4.186;2022-07-29T07:01:04;100629.69;;;20.09
45034;BMP280;30771;47.988;-4.186;2022-07-29T07:03:29;100635.09;;;20.19
45034;BMP280;30771;47.988;-4.186;2022-07-29T07:05:55;100621.75;;;20.29
45034;BMP280;30771;47.988;-4.186;2022-07-29T07:08:20;100635.94;;;20.45
45034;BMP280;30771;47.988;-4.186;2022-07-29T07:10:46;100638.38;;;20.56
45034;BMP280;30771;47.988;-4.186;2022-07-29T07:13:11;100636.78;;;20.65
45034;BMP280;30771;47.988;-4.186;2022-07-29T07:15:37;100638.38;;;20.81
45034;BMP280;30771;47.988;-4.186;2022-07-29T07:18:03;100631.97;;;21.02
45034;BMP280;30771;47.988;-4.186;2022-07-29T07:20:29;100636.22;;;21.23
45034;BMP280;30771;47.988;-4.186;2022-07-29T07:22:54;100630.53;;;21.35
45034;BMP280;30771;47.988;-4.186;2022-07-29T07:25:20;100635.84;;;21.50
45034;BMP280;30771;47.988;-4.186;2022-07-29T07:27:45;100647.88;;;21.62
45034;BMP280;30771;47.988;-4.186;2022-07-29T07:30:10;100642.47;;;21.73
45034;BMP280;30771;47.988;-4.186;2022-07-29T07:32:36;100645.66;;;21.85
45034;BMP280;30771;47.988;-4.186;2022-07-29T07:35:04;100643.44;;;21.97
45034;BMP280;30771;47.988;-4.186;2022-07-29T07:37:29;100645.22;;;22.16
45034;BMP280;30771;47.988;-4.186;2022-07-29T07:39:55;100647.47;;;22.38
45034;BMP280;30771;47.988;-4.186;2022-07-29T07:42:20;100648.94;;;22.59
45034;BMP280;30771;47.988;-4.186;2022-07-29T07:44:45;100650.94;;;22.77
45034;BMP280;30771;47.988;-4.186;2022-07-29T07:47:12;100659.72;;;22.87
45034;BMP280;30771;47.988;-4.186;2022-07-29T07:49:37;100665.84;;;22.93
45034;BMP280;30771;47.988;-4.186;2022-07-29T07:52:03;100666.28;;;23.05
45034;BMP280;30771;47.988;-4.186;2022-07-29T07:54:28;100664.00;;;23.17
45034;BMP280;30771;47.988;-4.186;2022-07-29T07:56:53;100664.00;;;23.17
45034;BMP280;30771;47.988;-4.186;2022-07-29T07:59:19;100665.72;;;23.08
45034;BMP280;30771;47.988;-4.186;2022-07-29T08:01:44;100667.03;;;23.10
45034;BMP280;30771;47.988;-4.186;2022-07-29T08:04:09;100653.06;;;23.08
45034;BMP280;30771;47.988;-4.186;2022-07-29T08:06:35;100661.63;;;23.39
45034;BMP280;30771;47.988;-4.186;2022-07-29T08:09:00;100647.13;;;23.58
45034;BMP280;30771;47.988;-4.186;2022-07-29T08:11:26;100657.06;;;23.81
45034;BMP280;30771;47.988;-4.186;2022-07-29T08:13:51;100652.94;;;24.08
45034;BMP280;30771;47.988;-4.186;2022-07-29T08:16:16;100643.44;;;24.29
45034;BMP280;30771;47.988;-4.186;2022-07-29T08:18:43;100653.59;;;24.50
45034;BMP280;30771;47.988;-4.186;2022-07-29T08:21:08;100657.16;;;24.64
45034;BMP280;30771;47.988;-4.186;2022-07-29T08:23:33;100664.84;;;24.71
45034;BMP280;30771;47.988;-4.186;2022-07-29T08:25:59;100666.47;;;24.72
45034;BMP280;30771;47.988;-4.186;2022-07-29T08:28:24;100668.28;;;24.90
45034;BMP280;30771;47.988;-4.186;2022-07-29T08:30:49;100667.19;;;25.04
45034;BMP280;30771;47.988;-4.186;2022-07-29T08:33:14;100668.19;;;24.95
45034;BMP280;30771;47.988;-4.186;2022-07-29T08:35:40;100668.84;;;24.73
45034;BMP280;30771;47.988;-4.186;2022-07-29T08:38:05;100672.28;;;24.60
45034;BMP280;30771;47.988;-4.186;2022-07-29T08:40:31;100677.19;;;24.58
45034;BMP280;30771;47.988;-4.186;2022-07-29T08:42:56;100677.66;;;24.60
45034;BMP280;30771;47.988;-4.186;2022-07-29T08:45:22;100684.44;;;24.58
45034;BMP280;30771;47.988;-4.186;2022-07-29T08:47:48;100682.56;;;24.58
45034;BMP280;30771;47.988;-4.186;2022-07-29T08:50:13;100684.94;;;24.60
45034;BMP280;30771;47.988;-4.186;2022-07-29T08:52:40;100694.09;;;24.77
45034;BMP280;30771;47.988;-4.186;2022-07-29T08:55:07;100678.56;;;24.88
45034;BMP280;30771;47.988;-4.186;2022-07-29T08:57:33;100684.47;;;24.90
45034;BMP280;30771;47.988;-4.186;2022-07-29T09:00:00;100688.94;;;24.94
45034;BMP280;30771;47.988;-4.186;2022-07-29T09:02:28;100682.25;;;24.92
45034;BMP280;30771;47.988;-4.186;2022-07-29T09:04:54;100683.09;;;25.06
45034;BMP280;30771;47.988;-4.186;2022-07-29T09:07:19;100692.25;;;25.05
45034;BMP280;30771;47.988;-4.186;2022-07-29T09:09:45;100692.19;;;25.23
45034;BMP280;30771;47.988;-4.186;2022-07-29T09:12:11;100680.41;;;25.46
45034;BMP280;30771;47.988;-4.186;2022-07-29T09:14:37;100685.50;;;25.61
45034;BMP280;30771;47.988;-4.186;2022-07-29T09:17:02;100684.84;;;25.78
45034;BMP280;30771;47.988;-4.186;2022-07-29T09:19:31;100679.47;;;25.78
45034;BMP280;30771;47.988;-4.186;2022-07-29T09:21:58;100684.56;;;25.79
45034;BMP280;30771;47.988;-4.186;2022-07-29T09:24:26;100684.00;;;25.69
45034;BMP280;30771;47.988;-4.186;2022-07-29T09:26:51;100682.84;;;25.70
45034;BMP280;30771;47.988;-4.186;2022-07-29T09:29:22;100681.84;;;25.79
45034;BMP280;30771;47.988;-4.186;2022-07-29T09:31:50;100683.56;;;25.75
45034;BMP280;30771;47.988;-4.186;2022-07-29T09:34:21;100685.25;;;25.85
45034;BMP280;30771;47.988;-4.186;2022-07-29T09:36:48;100691.09;;;26.00
45034;BMP280;30771;47.988;-4.186;2022-07-29T09:39:15;100685.88;;;26.04
45034;BMP280;30771;47.988;-4.186;2022-07-29T09:41:52;100699.09;;;26.05
45034;BMP280;30771;47.988;-4.186;2022-07-29T09:44:18;100693.19;;;26.03
45034;BMP280;30771;47.988;-4.186;2022-07-29T09:46:57;100697.03;;;26.24
45034;BMP280;30771;47.988;-4.186;2022-07-29T09:49:23;100690.81;;;26.46
45034;BMP280;30771;47.988;-4.186;2022-07-29T09:51:59;100683.63;;;26.63
45034;BMP280;30771;47.988;-4.186;2022-07-29T09:54:25;100681.50;;;26.83
45034;BMP280;30771;47.988;-4.186;2022-07-29T09:56:51;100688.53;;;26.92
45034;BMP280;30771;47.988;-4.186;2022-07-29T09:59:16;100692.28;;;26.74
45034;BMP280;30771;47.988;-4.186;2022-07-29T10:01:41;100695.94;;;26.70
45034;BMP280;30771;47.988;-4.186;2022-07-29T10:04:07;100692.63;;;26.81
45034;BMP280;30771;47.988;-4.186;2022-07-29T10:06:32;100688.97;;;26.86
45034;BMP280;30771;47.988;-4.186;2022-07-29T10:09:10;100692.25;;;26.96
45034;BMP280;30771;47.988;-4.186;2022-07-29T10:11:36;100693.16;;;26.92
45034;BMP280;30771;47.988;-4.186;2022-07-29T10:14:03;100688.75;;;27.04
45034;BMP280;30771;47.988;-4.186;2022-07-29T10:16:29;100688.59;;;27.01
45034;BMP280;30771;47.988;-4.186;2022-07-29T10:18:54;100683.91;;;27.23
45034;BMP280;30771;47.988;-4.186;2022-07-29T10:21:21;100688.56;;;27.40
45034;BMP280;30771;47.988;-4.186;2022-07-29T10:23:46;100694.94;;;27.35
45034;BMP280;30771;47.988;-4.186;2022-07-29T10:26:12;100693.50;;;27.38
45034;BMP280;30771;47.988;-4.186;2022-07-29T10:28:37;100688.94;;;27.64
45034;BMP280;30771;47.988;-4.186;2022-07-29T10:31:05;100685.13;;;27.82
45034;BMP280;30771;47.988;-4.186;2022-07-29T10:39:17;100690.06;;;28.22
45034;BMP280;30771;47.988;-4.186;2022-07-29T10:41:59;100688.16;;;28.23
45034;BMP280;30771;47.988;-4.186;2022-07-29T10:44:27;100691.66;;;28.32
45034;BMP280;30771;47.988;-4.186;2022-07-29T10:46:53;100691.81;;;28.35
45034;BMP280;30771;47.988;-4.186;2022-07-29T10:52:04;100704.41;;;27.80
45034;BMP280;30771;47.988;-4.186;2022-07-29T10:59:45;100702.34;;;28.20
45034;BMP280;30771;47.988;-4.186;2022-07-29T11:07:30;100712.06;;;27.87
45034;BMP280;30771;47.988;-4.186;2022-07-29T11:15:21;100705.50;;;27.88
45034;BMP280;30771;47.988;-4.186;2022-07-29T11:22:55;100708.50;;;28.46
45034;BMP280;30771;47.988;-4.186;2022-07-29T11:25:20;100720.78;;;28.43
45034;BMP280;30771;47.988;-4.186;2022-07-29T11:27:46;100717.31;;;28.26
45034;BMP280;30771;47.988;-4.186;2022-07-29T11:30:12;100716.53;;;28.25
45034;BMP280;30771;47.988;-4.186;2022-07-29T11:32:39;100722.72;;;28.34
45034;BMP280;30771;47.988;-4.186;2022-07-29T11:35:19;100723.94;;;28.62
45034;BMP280;30771;47.988;-4.186;2022-07-29T11:37:46;100711.34;;;28.66
45034;BMP280;30771;47.988;-4.186;2022-07-29T11:40:13;100720.53;;;28.82
45034;BMP280;30771;47.988;-4.186;2022-07-29T11:42:40;100698.81;;;28.91
45034;BMP280;30771;47.988;-4.186;2022-07-29T11:45:12;100713.31;;;29.24
45034;BMP280;30771;47.988;-4.186;2022-07-29T11:47:39;100714.13;;;29.24
45034;BMP280;30771;47.988;-4.186;2022-07-29T11:50:11;100716.56;;;29.17
45034;BMP280;30771;47.988;-4.186;2022-07-29T11:52:39;100709.81;;;29.23
45034;BMP280;30771;47.988;-4.186;2022-07-29T11:55:05;100701.16;;;29.50
45034;BMP280;30771;47.988;-4.186;2022-07-29T11:57:31;100700.75;;;29.69
45034;BMP280;30771;47.988;-4.186;2022-07-29T11:59:59;100705.31;;;29.77
45034;BMP280;30771;47.988;-4.186;2022-07-29T12:02:24;100707.00;;;29.61
45034;BMP280;30771;47.988;-4.186;2022-07-29T12:04:51;100702.78;;;29.51
45034;BMP280;30771;47.988;-4.186;2022-07-29T12:07:16;100706.16;;;29.48
45034;BMP280;30771;47.988;-4.186;2022-07-29T12:09:52;100700.84;;;29.31
45034;BMP280;30771;47.988;-4.186;2022-07-29T12:12:18;100696.66;;;29.34
45034;BMP280;30771;47.988;-4.186;2022-07-29T12:14:44;100690.59;;;29.37
45034;BMP280;30771;47.988;-4.186;2022-07-29T12:19:53;100686.09;;;29.61
45034;BMP280;30771;47.988;-4.186;2022-07-29T12:22:32;100696.63;;;29.63
45034;BMP280;30771;47.988;-4.186;2022-07-29T12:25:09;100696.22;;;29.52
45034;BMP280;30771;47.988;-4.186;2022-07-29T12:27:35;100684.38;;;29.77
45034;BMP280;30771;47.988;-4.186;2022-07-29T12:30:09;100681.19;;;29.96
45034;BMP280;30771;47.988;-4.186;2022-07-29T12:32:40;100698.78;;;29.90
45034;BMP280;30771;47.988;-4.186;2022-07-29T12:35:11;100700.84;;;29.93
45034;BMP280;30771;47.988;-4.186;2022-07-29T12:37:38;100700.94;;;29.84
45034;BMP280;30771;47.988;-4.186;2022-07-29T12:40:05;100693.25;;;29.86
45034;BMP280;30771;47.988;-4.186;2022-07-29T12:42:31;100696.13;;;30.02
45034;BMP280;30771;47.988;-4.186;2022-07-29T12:44:56;100704.59;;;29.88
45034;BMP280;30771;47.988;-4.186;2022-07-29T12:47:22;100706.88;;;29.98
45034;BMP280;30771;47.988;-4.186;2022-07-29T12:49:48;100701.50;;;30.10
45034;BMP280;30771;47.988;-4.186;2022-07-29T12:54:52;100706.28;;;30.13
45034;BMP280;30771;47.988;-4.186;2022-07-29T12:57:18;100716.75;;;29.62
45034;BMP280;30771;47.988;-4.186;2022-07-29T12:59:43;100718.81;;;29.07
45034;BMP280;30771;47.988;-4.186;2022-07-29T13:02:20;100729.50;;;28.66
45034;BMP280;30771;47.988;-4.186;2022-07-29T13:04:55;100729.59;;;28.23
45034;BMP280;30771;47.988;-4.186;2022-07-29T13:07:24;100726.25;;;28.01
45034;BMP280;30771;47.988;-4.186;2022-07-29T13:09:49;100722.25;;;28.15
45034;BMP280;30771;47.988;-4.186;2022-07-29T13:12:15;100716.31;;;28.56
45034;BMP280;30771;47.988;-4.186;2022-07-29T13:14:42;100707.59;;;28.88
45034;BMP280;30771;47.988;-4.186;2022-07-29T13:17:18;100714.56;;;29.26
45034;BMP280;30771;47.988;-4.186;2022-07-29T13:20:07;100701.97;;;29.51
45034;BMP280;30771;47.988;-4.186;2022-07-29T13:22:33;100709.91;;;29.56
45034;BMP280;30771;47.988;-4.186;2022-07-29T13:25:00;100720.44;;;29.37
45034;BMP280;30771;47.988;-4.186;2022-07-29T13:27:27;100715.13;;;29.20
45034;BMP280;30771;47.988;-4.186;2022-07-29T13:29:53;100720.34;;;29.25
45034;BMP280;30771;47.988;-4.186;2022-07-29T13:32:20;100717.13;;;29.31
45034;BMP280;30771;47.988;-4.186;2022-07-29T13:34:45;100729.66;;;29.44
45034;BMP280;30771;47.988;-4.186;2022-07-29T13:37:11;100734.66;;;29.34
45034;BMP280;30771;47.988;-4.186;2022-07-29T13:39:36;100729.31;;;29.17
45034;BMP280;30771;47.988;-4.186;2022-07-29T13:42:02;100740.09;;;29.34
45034;BMP280;30771;47.988;-4.186;2022-07-29T13:44:27;100740.88;;;29.34
45034;BMP280;30771;47.988;-4.186;2022-07-29T13:46:52;100741.41;;;29.28
45034;BMP280;30771;47.988;-4.186;2022-07-29T13:49:18;100755.09;;;29.31
45034;BMP280;30771;47.988;-4.186;2022-07-29T13:51:43;100761.88;;;29.17
45034;BMP280;30771;47.988;-4.186;2022-07-29T13:54:08;100769.81;;;28.84
45034;BMP280;30771;47.988;-4.186;2022-07-29T13:56:33;100764.91;;;28.61
45034;BMP280;30771;47.988;-4.186;2022-07-29T13:58:59;100764.28;;;28.55
45034;BMP280;30771;47.988;-4.186;2022-07-29T14:01:24;100764.91;;;28.61
45034;BMP280;30771;47.988;-4.186;2022-07-29T14:03:49;100765.53;;;28.66
45034;BMP280;30771;47.988;-4.186;2022-07-29T14:06:15;100766.00;;;28.68
45034;BMP280;30771;47.988;-4.186;2022-07-29T14:08:40;100763.28;;;28.68
45034;BMP280;30771;47.988;-4.186;2022-07-29T14:11:05;100769.34;;;28.82
45034;BMP280;30771;47.988;-4.186;2022-07-29T14:13:31;100767.69;;;28.98
45034;BMP280;30771;47.988;-4.186;2022-07-29T14:15:56;100760.19;;;29.04
45034;BMP280;30771;47.988;-4.186;2022-07-29T14:18:22;100760.38;;;28.90
45034;BMP280;30771;47.988;-4.186;2022-07-29T14:20:47;100770.13;;;28.83
45034;BMP280;30771;47.988;-4.186;2022-07-29T14:23:12;100764.09;;;28.60
45034;BMP280;30771;47.988;-4.186;2022-07-29T14:25:38;100762.06;;;28.57
45034;BMP280;30771;47.988;-4.186;2022-07-29T14:28:03;100763.94;;;28.65
45034;BMP280;30771;47.988;-4.186;2022-07-29T14:30:28;100759.66;;;28.64
45034;BMP280;30771;47.988;-4.186;2022-07-29T14:32:54;100756.09;;;28.81
45034;BMP280;30771;47.988;-4.186;2022-07-29T14:35:19;100755.22;;;28.97
45034;BMP280;30771;47.988;-4.186;2022-07-29T14:37:44;100765.34;;;28.88
45034;BMP280;30771;47.988;-4.186;2022-07-29T14:40:10;100769.03;;;28.84
45034;BMP280;30771;47.988;-4.186;2022-07-29T14:42:35;100762.97;;;28.87
45034;BMP280;30771;47.988;-4.186;2022-07-29T14:45:01;100770.09;;;28.91
45034;BMP280;30771;47.988;-4.186;2022-07-29T14:47:26;100770.94;;;28.75
45034;BMP280;30771;47.988;-4.186;2022-07-29T14:49:51;100774.47;;;28.67
45034;BMP280;30771;47.988;-4.186;2022-07-29T14:52:16;100762.34;;;28.81
45034;BMP280;30771;47.988;-4.186;2022-07-29T14:54:42;100759.25;;;28.91
45034;BMP280;30771;47.988;-4.186;2022-07-29T14:57:07;100779.63;;;28.97
45034;BMP280;30771;47.988;-4.186;2022-07-29T14:59:32;100773.34;;;28.76
45034;BMP280;30771;47.988;-4.186;2022-07-29T15:01:58;100782.59;;;28.75
45034;BMP280;30771;47.988;-4.186;2022-07-29T15:04:23;100781.13;;;28.78
45034;BMP280;30771;47.988;-4.186;2022-07-29T15:06:48;100792.44;;;28.80
45034;BMP280;30771;47.988;-4.186;2022-07-29T15:09:14;100787.22;;;28.66
45034;BMP280;30771;47.988;-4.186;2022-07-29T15:11:39;100785.34;;;28.50
45034;BMP280;30771;47.988;-4.186;2022-07-29T15:14:05;100787.91;;;28.55
45034;BMP280;30771;47.988;-4.186;2022-07-29T15:16:30;100777.97;;;28.50
45034;BMP280;30771;47.988;-4.186;2022-07-29T15:18:56;100773.38;;;28.51
45034;BMP280;30771;47.988;-4.186;2022-07-29T15:21:21;100794.91;;;28.56
45034;BMP280;30771;47.988;-4.186;2022-07-29T15:23:46;100775.31;;;28.59
45034;BMP280;30771;47.988;-4.186;2022-07-29T15:26:11;100798.91;;;28.50
45034;BMP280;30771;47.988;-4.186;2022-07-29T15:28:37;100784.84;;;28.31
45034;BMP280;30771;47.988;-4.186;2022-07-29T15:31:02;100780.72;;;28.25
45034;BMP280;30771;47.988;-4.186;2022-07-29T15:33:27;100781.84;;;28.41
45034;BMP280;30771;47.988;-4.186;2022-07-29T15:35:52;100785.81;;;28.43
45034;BMP280;30771;47.988;-4.186;2022-07-29T15:38:18;100794.78;;;28.35
45034;BMP280;30771;47.988;-4.186;2022-07-29T15:40:43;100791.72;;;28.37
45034;BMP280;30771;47.988;-4.186;2022-07-29T15:43:09;100793.00;;;28.39
45034;BMP280;30771;47.988;-4.186;2022-07-29T15:45:40;100781.06;;;28.32
45034;BMP280;30771;47.988;-4.186;2022-07-29T15:48:06;100793.31;;;28.21
45034;BMP280;30771;47.988;-4.186;2022-07-29T15:50:32;100785.66;;;28.06
45034;BMP280;30771;47.988;-4.186;2022-07-29T15:52:58;100792.50;;;28.12
45034;BMP280;30771;47.988;-4.186;2022-07-29T15:55:23;100787.88;;;28.12
45034;BMP280;30771;47.988;-4.186;2022-07-29T15:57:49;100787.22;;;28.24
45034;BMP280;30771;47.988;-4.186;2022-07-29T16:00:14;100795.69;;;28.31
45034;BMP280;30771;47.988;-4.186;2022-07-29T16:02:39;100781.69;;;28.29
45034;BMP280;30771;47.988;-4.186;2022-07-29T16:05:05;100785.34;;;28.24
45034;BMP280;30771;47.988;-4.186;2022-07-29T16:07:30;100787.59;;;28.22
45034;BMP280;30771;47.988;-4.186;2022-07-29T16:09:55;100807.31;;;28.06
45034;BMP280;30771;47.988;-4.186;2022-07-29T16:12:21;100797.09;;;27.94
45034;BMP280;30771;47.988;-4.186;2022-07-29T16:14:46;100790.59;;;28.04
45034;BMP280;30771;47.988;-4.186;2022-07-29T16:17:11;100800.78;;;28.07
45034;BMP280;30771;47.988;-4.186;2022-07-29T16:19:37;100787.69;;;27.92
45034;BMP280;30771;47.988;-4.186;2022-07-29T16:22:03;100805.72;;;27.96
45034;BMP280;30771;47.988;-4.186;2022-07-29T16:24:28;100791.50;;;27.91
45034;BMP280;30771;47.988;-4.186;2022-07-29T16:26:54;100789.31;;;27.93
45034;BMP280;30771;47.988;-4.186;2022-07-29T16:29:20;100796.34;;;28.02
45034;BMP280;30771;47.988;-4.186;2022-07-29T16:31:45;100791.38;;;27.96
45034;BMP280;30771;47.988;-4.186;2022-07-29T16:34:10;100779.91;;;27.90
45034;BMP280;30771;47.988;-4.186;2022-07-29T16:36:35;100790.88;;;27.94
45034;BMP280;30771;47.988;-4.186;2022-07-29T16:39:01;100794.72;;;27.93
45034;BMP280;30771;47.988;-4.186;2022-07-29T16:41:26;100794.03;;;27.79
45034;BMP280;30771;47.988;-4.186;2022-07-29T16:43:51;100794.19;;;27.82
45034;BMP280;30771;47.988;-4.186;2022-07-29T16:46:17;100789.31;;;27.84
45034;BMP280;30771;47.988;-4.186;2022-07-29T16:48:42;100780.81;;;27.77
45034;BMP280;30771;47.988;-4.186;2022-07-29T16:51:07;100786.88;;;27.83
45034;BMP280;30771;47.988;-4.186;2022-07-29T16:53:33;100789.63;;;27.91
45034;BMP280;30771;47.988;-4.186;2022-07-29T16:55:58;100790.22;;;27.97
45034;BMP280;30771;47.988;-4.186;2022-07-29T16:58:23;100796.47;;;27.97
45034;BMP280;30771;47.988;-4.186;2022-07-29T17:00:49;100786.91;;;27.91
45034;BMP280;30771;47.988;-4.186;2022-07-29T17:03:14;100801.66;;;27.68
45034;BMP280;30771;47.988;-4.186;2022-07-29T17:05:39;100803.50;;;27.51
45034;BMP280;30771;47.988;-4.186;2022-07-29T17:08:05;100806.69;;;27.53
45034;BMP280;30771;47.988;-4.186;2022-07-29T17:10:30;100809.91;;;27.55
45034;BMP280;30771;47.988;-4.186;2022-07-29T17:12:55;100810.78;;;27.42
45034;BMP280;30771;47.988;-4.186;2022-07-29T17:15:21;100817.28;;;27.32
45034;BMP280;30771;47.988;-4.186;2022-07-29T17:17:46;100817.00;;;27.12
45034;BMP280;30771;47.988;-4.186;2022-07-29T17:20:12;100827.91;;;26.98
45034;BMP280;30771;47.988;-4.186;2022-07-29T17:22:38;100817.13;;;26.85
45034;BMP280;30771;47.988;-4.186;2022-07-29T17:25:03;100818.16;;;26.89
45034;BMP280;30771;47.988;-4.186;2022-07-29T17:27:29;100827.81;;;26.90
45034;BMP280;30771;47.988;-4.186;2022-07-29T17:29:56;100824.25;;;26.81
45034;BMP280;30771;47.988;-4.186;2022-07-29T17:32:21;100831.31;;;26.68
45034;BMP280;30771;47.988;-4.186;2022-07-29T17:34:46;100826.16;;;26.58
45034;BMP280;30771;47.988;-4.186;2022-07-29T17:37:12;100826.25;;;26.67
45034;BMP280;30771;47.988;-4.186;2022-07-29T17:39:38;100837.47;;;26.82
45034;BMP280;30771;47.988;-4.186;2022-07-29T17:42:04;100830.41;;;26.95
45034;BMP280;30771;47.988;-4.186;2022-07-29T17:44:30;100839.31;;;26.95
45034;BMP280;30771;47.988;-4.186;2022-07-29T17:46:55;100849.03;;;26.96
45034;BMP280;30771;47.988;-4.186;2022-07-29T17:49:20;100857.75;;;26.93
45034;BMP280;30771;47.988;-4.186;2022-07-29T17:51:45;100849.53;;;26.76
45034;BMP280;30771;47.988;-4.186;2022-07-29T17:54:11;100856.47;;;26.91
45034;BMP280;30771;47.988;-4.186;2022-07-29T17:56:36;100852.47;;;27.10
45034;BMP280;30771;47.988;-4.186;2022-07-29T17:59:02;100848.00;;;27.36
45034;BMP280;30771;47.988;-4.186;2022-07-29T18:01:27;100855.09;;;27.93
45034;BMP280;30771;47.988;-4.186;2022-07-29T18:03:52;100847.44;;;28.97
45034;BMP280;30771;47.988;-4.186;2022-07-29T18:06:18;100839.66;;;29.79
45034;BMP280;30771;47.988;-4.186;2022-07-29T18:08:43;100831.44;;;30.49
45034;BMP280;30771;47.988;-4.186;2022-07-29T18:11:08;100831.34;;;30.70
45034;BMP280;30771;47.988;-4.186;2022-07-29T18:13:34;100823.28;;;31.06
45034;BMP280;30771;47.988;-4.186;2022-07-29T18:15:59;100833.06;;;31.55
45034;BMP280;30771;47.988;-4.186;2022-07-29T18:18:24;100839.72;;;31.45
45034;BMP280;30771;47.988;-4.186;2022-07-29T18:20:49;100824.53;;;31.56
45034;BMP280;30771;47.988;-4.186;2022-07-29T18:23:15;100823.75;;;31.56
45034;BMP280;30771;47.988;-4.186;2022-07-29T18:25:40;100828.63;;;31.50
45034;BMP280;30771;47.988;-4.186;2022-07-29T18:28:05;100829.06;;;31.64
45034;BMP280;30771;47.988;-4.186;2022-07-29T18:30:32;100830.34;;;31.55
45034;BMP280;30771;47.988;-4.186;2022-07-29T18:32:57;100835.53;;;31.12
45034;BMP280;30771;47.988;-4.186;2022-07-29T18:35:23;100855.41;;;31.36
45034;BMP280;30771;47.988;-4.186;2022-07-29T18:37:48;100842.81;;;31.32
45034;BMP280;30771;47.988;-4.186;2022-07-29T18:40:13;100853.13;;;31.14
45034;BMP280;30771;47.988;-4.186;2022-07-29T18:42:38;100836.56;;;31.31
45034;BMP280;30771;47.988;-4.186;2022-07-29T18:45:04;100848.16;;;31.52
45034;BMP280;30771;47.988;-4.186;2022-07-29T18:47:29;100842.47;;;31.57
45034;BMP280;30771;47.988;-4.186;2022-07-29T18:49:55;100847.22;;;31.60
45034;BMP280;30771;47.988;-4.186;2022-07-29T18:52:20;100853.59;;;31.52
45034;BMP280;30771;47.988;-4.186;2022-07-29T18:54:45;100848.81;;;31.73
45034;BMP280;30771;47.988;-4.186;2022-07-29T18:57:11;100863.00;;;31.79
45034;BMP280;30771;47.988;-4.186;2022-07-29T18:59:36;100871.50;;;31.41
45034;BMP280;30771;47.988;-4.186;2022-07-29T19:02:01;100863.78;;;31.19
45034;BMP280;30771;47.988;-4.186;2022-07-29T19:04:26;100875.38;;;30.72
45034;BMP280;30771;47.988;-4.186;2022-07-29T19:06:52;100889.72;;;30.40
45034;BMP280;30771;47.988;-4.186;2022-07-29T19:09:17;100887.69;;;30.28
45034;BMP280;30771;47.988;-4.186;2022-07-29T19:11:42;100880.66;;;30.07
45034;BMP280;30771;47.988;-4.186;2022-07-29T19:14:08;100891.81;;;29.56
45034;BMP280;30771;47.988;-4.186;2022-07-29T19:16:33;100898.66;;;28.31
45034;BMP280;30771;47.988;-4.186;2022-07-29T19:18:59;100913.94;;;27.18
45034;BMP280;30771;47.988;-4.186;2022-07-29T19:21:24;100924.28;;;26.31
45034;BMP280;30771;47.988;-4.186;2022-07-29T19:23:49;100937.19;;;25.62
45034;BMP280;30771;47.988;-4.186;2022-07-29T19:26:15;100927.63;;;25.00
45034;BMP280;30771;47.988;-4.186;2022-07-29T19:28:40;100939.84;;;24.51
45034;BMP280;30771;47.988;-4.186;2022-07-29T19:31:05;100936.25;;;24.13
45034;BMP280;30771;47.988;-4.186;2022-07-29T19:33:31;100939.50;;;23.81
45034;BMP280;30771;47.988;-4.186;2022-07-29T19:35:56;100955.06;;;23.51
45034;BMP280;30771;47.988;-4.186;2022-07-29T19:38:21;100956.88;;;23.22
45034;BMP280;30771;47.988;-4.186;2022-07-29T19:40:47;100947.31;;;22.96
45034;BMP280;30771;47.988;-4.186;2022-07-29T19:43:12;100954.91;;;22.79
45034;BMP280;30771;47.988;-4.186;2022-07-29T19:45:38;100959.53;;;22.63
45034;BMP280;30771;47.988;-4.186;2022-07-29T19:48:04;100966.81;;;22.48
45034;BMP280;30771;47.988;-4.186;2022-07-29T19:50:30;100964.97;;;22.38
45034;BMP280;30771;47.988;-4.186;2022-07-29T19:52:55;100954.56;;;22.17
45034;BMP280;30771;47.988;-4.186;2022-07-29T19:55:20;100965.28;;;22.02
45034;BMP280;30771;47.988;-4.186;2022-07-29T19:57:46;100966.38;;;21.86
45034;BMP280;30771;47.988;-4.186;2022-07-29T20:00:12;100973.56;;;21.75
45034;BMP280;30771;47.988;-4.186;2022-07-29T20:02:38;100976.22;;;21.60
45034;BMP280;30771;47.988;-4.186;2022-07-29T20:05:04;100979.16;;;21.48
45034;BMP280;30771;47.988;-4.186;2022-07-29T20:07:29;100973.50;;;21.40
45034;BMP280;30771;47.988;-4.186;2022-07-29T20:09:54;100976.16;;;21.30
45034;BMP280;30771;47.988;-4.186;2022-07-29T20:12:23;100974.25;;;21.20